Altoona Blair County Airport
KAOO : now visible

Airfield :











YOU CAN JOIN US ON...

 
LOGIN :

Register | Disclaimer

   EN    FR    IT 

 









Legend :    VFR   Marginal VFR   IFR   Intensive IFR   Very Intensive IFR
Visi :
Ceiling :
>= 8 km
>= 3000ft
5 to 8 km
1000 to 3000 ft
1500m to 5 km
500 to 1000 ft
800 to 1500m
200 to 500 ft
< 800m
< 200 ft
Symbols :   Thunderstorms  Fog  Heavy snow  Heavy precipitations  Wind > 20 kt






- Airport Elevation : 1503 ft
- IATA code : AOO


KAOO - Altoona Blair County

CURRENT METAR :
  • 181653Z AUTO VRB05KT 10SM CLR 32/21 A3026 RMK AO2 LTG DSNT SW SLP233 T03220206

EXPIRED METARs :
  • 181553Z AUTO VRB04KT 10SM CLR 31/21 A3027 RMK AO2 SLP237 T03110211
  • 181453Z AUTO 15005KT 10SM CLR 30/21 A3027 RMK AO2 SLP238 T03000211 51007
  • 181353Z AUTO VRB04KT 10SM CLR 28/21 A3027 RMK AO2 SLP238 T02780211
  • 181253Z AUTO 00000KT 10SM CLR 27/21 A3026 RMK AO2 SLP233 T02670211

TAF KAOO
Valid from the 18 at 18:00 until the 19 at 18:00 UTC


181722Z 1818/1918 15005KT P6SM VCSH BKN040
FM190200 VRB02KT P6SM BKN250
KZOB FIR / North America



MET'MAP, your aeronautical weather chart ! - Copyright ORBIFLY December 2007 - Disclaimer

ORBIFLY MET'MAP TEAM :

Programming & Development : Alexandra Zaïnal
Original concept : Baudouin d'Aumeries
Technical & hardware support : Manuel Goepfert
Assistance : Marc-Olivier Méhu




SOURCES & CREDITS :

   NOAA       Earth
Advisory